createdAt,value
2018-03-14T00:01:47.110Z,6.40
2018-03-14T00:04:15.429Z,8.00
2018-03-14T00:06:43.753Z,8.23
2018-03-14T00:09:12.070Z,7.50
2018-03-14T00:11:40.368Z,7.57
2018-03-14T00:14:08.705Z,8.40
2018-03-14T00:16:37.015Z,7.60
2018-03-14T00:19:05.379Z,5.27
2018-03-14T00:21:33.729Z,4.10
2018-03-14T00:24:02.024Z,4.70
2018-03-14T00:26:30.339Z,4.50
2018-03-14T00:28:58.672Z,4.17
2018-03-14T00:31:26.976Z,3.60
2018-03-14T00:33:55.287Z,4.30
2018-03-14T00:36:23.608Z,3.20
2018-03-14T00:38:51.925Z,3.67
2018-03-14T00:41:20.265Z,3.40
2018-03-14T00:43:48.568Z,3.20
2018-03-14T00:46:16.868Z,2.93
2018-03-14T00:48:45.180Z,2.80
2018-03-14T00:51:13.524Z,3.67
2018-03-14T00:53:41.850Z,3.73
2018-03-14T00:56:10.160Z,3.30
2018-03-14T00:58:38.471Z,3.50
2018-03-14T01:01:06.785Z,4.03
2018-03-14T01:03:35.153Z,3.87
2018-03-14T01:06:03.466Z,3.47
2018-03-14T01:08:31.781Z,5.00
2018-03-14T01:11:00.096Z,3.73
2018-03-14T01:13:28.387Z,3.50
2018-03-14T01:15:56.718Z,2.90
2018-03-14T01:18:25.038Z,2.17
2018-03-14T01:20:53.351Z,2.50
2018-03-14T01:23:21.672Z,2.80
2018-03-14T01:25:49.979Z,2.90
2018-03-14T01:28:18.292Z,3.00
2018-03-14T01:30:46.599Z,2.60
2018-03-14T01:33:14.918Z,3.20
2018-03-14T01:35:43.229Z,2.20
2018-03-14T01:38:11.659Z,2.30
2018-03-14T01:40:39.969Z,1.87
2018-03-14T01:43:08.349Z,2.60
2018-03-14T01:45:36.673Z,2.73
2018-03-14T01:48:04.997Z,2.37
2018-03-14T01:50:33.303Z,2.73
2018-03-14T01:53:13.289Z,2.33
2018-03-14T01:55:41.603Z,3.00
2018-03-14T01:58:09.945Z,3.23
2018-03-14T02:00:38.279Z,3.50
2018-03-14T02:03:06.597Z,3.43
2018-03-14T02:05:34.909Z,3.50
2018-03-14T02:08:03.214Z,4.00
2018-03-14T02:10:31.527Z,4.13
2018-03-14T02:12:59.835Z,5.37
2018-03-14T02:15:28.144Z,4.53
2018-03-14T02:17:56.455Z,5.30
2018-03-14T02:20:24.758Z,3.93
2018-03-14T02:22:53.069Z,5.77
2018-03-14T02:25:21.384Z,5.07
2018-03-14T02:27:49.680Z,5.33
2018-03-14T02:30:17.987Z,5.73
2018-03-14T02:32:46.288Z,5.60
2018-03-14T02:35:14.602Z,5.97
2018-03-14T02:37:42.905Z,6.70
2018-03-14T02:40:11.443Z,5.80
2018-03-14T02:42:39.752Z,5.50
2018-03-14T02:45:08.056Z,5.67
2018-03-14T02:47:36.375Z,6.33
2018-03-14T02:50:04.692Z,6.10
2018-03-14T02:52:33.341Z,6.03
2018-03-14T02:55:01.635Z,6.77
2018-03-14T02:57:29.947Z,6.10
2018-03-14T02:59:58.260Z,5.90
2018-03-14T03:02:26.565Z,6.40
2018-03-14T03:04:54.891Z,5.60
2018-03-14T03:07:23.199Z,6.60
2018-03-14T03:09:51.528Z,6.63
2018-03-14T03:12:19.830Z,5.67
2018-03-14T03:14:48.123Z,5.93
2018-03-14T03:17:16.578Z,5.83
2018-03-14T03:19:44.900Z,6.77
2018-03-14T03:22:13.220Z,6.83
2018-03-14T03:24:41.512Z,6.00
2018-03-14T03:27:09.844Z,6.77
2018-03-14T03:29:38.164Z,7.43
2018-03-14T03:32:06.475Z,6.27
2018-03-14T03:34:34.778Z,6.27
2018-03-14T03:37:03.276Z,7.20
2018-03-14T03:39:31.583Z,7.57
2018-03-14T03:41:59.887Z,6.80
2018-03-14T03:44:28.206Z,7.83
2018-03-14T03:46:56.524Z,6.63
2018-03-14T03:49:24.836Z,6.80
2018-03-14T03:51:53.153Z,7.90
2018-03-14T03:54:21.479Z,6.90
2018-03-14T03:56:49.777Z,6.27
2018-03-14T03:59:18.102Z,7.77
2018-03-14T04:01:46.435Z,7.43
2018-03-14T04:04:14.786Z,7.80
2018-03-14T04:06:43.090Z,7.00
2018-03-14T04:09:11.398Z,7.73
2018-03-14T04:11:39.743Z,7.27
2018-03-14T04:14:08.094Z,7.70
2018-03-14T04:16:36.422Z,7.63
2018-03-14T04:19:04.743Z,7.20
2018-03-14T04:21:33.101Z,7.77
2018-03-14T04:24:01.394Z,7.93
2018-03-14T04:26:29.696Z,7.80
2018-03-14T04:28:58.046Z,8.33
2018-03-14T04:31:26.343Z,8.00
2018-03-14T04:33:54.685Z,9.37
2018-03-14T04:36:23.623Z,9.20
2018-03-14T04:38:51.939Z,8.60
2018-03-14T04:41:20.261Z,10.30
2018-03-14T04:43:48.588Z,8.60
2018-03-14T04:46:16.904Z,9.43
2018-03-14T04:48:45.211Z,9.93
2018-03-14T04:51:13.545Z,10.60
2018-03-14T04:53:41.872Z,9.23
2018-03-14T04:56:10.172Z,8.30
2018-03-14T04:58:38.496Z,10.33
2018-03-14T05:01:06.799Z,7.90
2018-03-14T05:03:35.136Z,7.93
2018-03-14T05:06:03.441Z,9.30
2018-03-14T05:08:31.764Z,9.57
2018-03-14T05:11:00.094Z,10.80
2018-03-14T05:13:28.396Z,8.27
2018-03-14T05:15:56.715Z,9.20
2018-03-14T05:18:25.020Z,8.63
2018-03-14T05:20:53.367Z,9.50
2018-03-14T05:23:21.685Z,8.50
2018-03-14T05:25:49.983Z,9.20
2018-03-14T05:28:18.316Z,9.43
2018-03-14T05:30:46.634Z,8.10
2018-03-14T05:33:14.972Z,9.37
2018-03-14T05:35:43.274Z,8.93
2018-03-14T05:38:11.629Z,9.13
2018-03-14T05:40:39.925Z,10.00
2018-03-14T05:43:08.229Z,8.90
2018-03-14T05:45:36.558Z,8.43
2018-03-14T05:48:04.883Z,7.77
2018-03-14T05:50:33.572Z,9.63
2018-03-14T05:53:01.881Z,7.50
2018-03-14T05:55:30.282Z,7.63
2018-03-14T05:57:58.584Z,8.37
2018-03-14T06:00:27.138Z,6.27
2018-03-14T06:02:55.446Z,6.40
2018-03-14T06:05:23.787Z,7.40
2018-03-14T06:07:52.070Z,6.57
2018-03-14T06:10:20.445Z,8.40
2018-03-14T06:12:48.773Z,8.90
2018-03-14T06:15:17.080Z,8.63
2018-03-14T06:17:46.195Z,6.83
2018-03-14T06:20:16.632Z,9.47
2018-03-14T06:22:45.048Z,6.70
2018-03-14T06:25:13.369Z,7.50
2018-03-14T06:27:41.707Z,9.07
2018-03-14T06:30:10.140Z,7.77
2018-03-14T06:32:38.558Z,6.90
2018-03-14T06:35:06.863Z,8.10
2018-03-14T06:37:35.200Z,8.00
2018-03-14T06:40:03.674Z,7.90
2018-03-14T06:42:31.994Z,7.90
2018-03-14T06:45:00.456Z,6.13
2018-03-14T06:47:28.840Z,8.07
2018-03-14T06:49:57.156Z,7.87
2018-03-14T06:52:25.947Z,6.87
2018-03-14T06:54:54.311Z,6.80
2018-03-14T06:57:22.627Z,8.40
2018-03-14T07:00:03.562Z,8.60
2018-03-14T07:02:43.600Z,6.97
2018-03-14T07:05:23.532Z,6.77
2018-03-14T07:07:51.836Z,7.27
2018-03-14T07:10:20.166Z,7.50
2018-03-14T07:12:48.583Z,7.57
2018-03-14T07:15:16.909Z,7.37
2018-03-14T07:17:45.241Z,6.70
2018-03-14T07:20:13.565Z,6.70
2018-03-14T07:22:41.889Z,7.57
2018-03-14T07:25:10.240Z,9.67
2018-03-14T07:27:38.609Z,7.30
2018-03-14T07:30:06.931Z,6.80
2018-03-14T07:32:35.248Z,7.20
2018-03-14T07:35:06.485Z,7.43
2018-03-14T07:37:34.962Z,7.03
2018-03-14T07:40:03.425Z,7.43
2018-03-14T07:42:31.775Z,6.37
2018-03-14T07:45:00.247Z,6.93
2018-03-14T07:47:28.588Z,6.63
2018-03-14T07:49:56.961Z,7.67
2018-03-14T07:52:25.386Z,7.90
2018-03-14T07:54:53.888Z,9.53
2018-03-14T07:57:22.380Z,7.20
2018-03-14T08:02:23.239Z,8.40
2018-03-14T08:04:51.584Z,7.90
2018-03-14T08:07:20.038Z,8.07
2018-03-14T08:09:48.394Z,8.07
2018-03-14T08:12:16.749Z,7.47
2018-03-14T08:14:45.329Z,9.70
2018-03-14T08:17:14.553Z,9.47
2018-03-14T08:19:42.866Z,12.83
2018-03-14T08:22:11.190Z,8.60
2018-03-14T08:24:39.536Z,8.60
2018-03-14T08:27:07.907Z,9.50
2018-03-14T08:29:36.217Z,9.80
2018-03-14T08:32:04.561Z,7.87
2018-03-14T08:34:32.989Z,9.67
2018-03-14T08:37:03.263Z,9.07
2018-03-14T08:39:31.737Z,8.67
2018-03-14T08:42:00.166Z,8.63
2018-03-14T08:44:29.253Z,8.77
2018-03-14T08:46:57.675Z,9.27
2018-03-14T08:49:26.012Z,8.13
2018-03-14T08:54:26.764Z,11.23
2018-03-14T08:56:55.237Z,9.00
2018-03-14T08:59:23.715Z,8.33
2018-03-14T09:01:52.062Z,9.03
2018-03-14T09:04:20.512Z,9.50
2018-03-14T09:06:49.189Z,10.97
2018-03-14T09:09:17.507Z,8.47
2018-03-14T09:11:45.835Z,10.90
2018-03-14T09:16:47.154Z,9.53
2018-03-14T09:21:48.047Z,10.13
2018-03-14T09:24:16.639Z,10.47
2018-03-14T09:26:45.399Z,9.67
2018-03-14T09:29:13.974Z,7.90
2018-03-14T09:31:42.433Z,9.43
2018-03-14T09:34:10.933Z,8.80
2018-03-14T09:36:39.939Z,9.30
2018-03-14T09:39:08.476Z,9.27
2018-03-14T09:41:36.812Z,8.97
2018-03-14T09:44:05.640Z,10.30
2018-03-14T09:46:34.023Z,9.07
2018-03-14T09:49:02.698Z,11.33
2018-03-14T09:51:31.054Z,9.83
2018-03-14T09:53:59.395Z,7.97
2018-03-14T09:56:27.823Z,9.20
2018-03-14T09:58:56.269Z,10.17
2018-03-14T10:01:24.978Z,9.63
2018-03-14T10:03:53.395Z,10.17
2018-03-14T10:06:22.792Z,10.27
2018-03-14T10:08:51.912Z,12.07
2018-03-14T10:11:20.239Z,10.00
2018-03-14T10:13:48.811Z,11.83
2018-03-14T10:16:17.221Z,10.63
2018-03-14T10:18:45.559Z,11.57
2018-03-14T10:21:14.028Z,11.67
2018-03-14T10:23:42.429Z,12.80
2018-03-14T10:26:10.821Z,13.80
2018-03-14T10:28:39.144Z,12.53
2018-03-14T10:31:07.896Z,12.43
2018-03-14T10:33:36.303Z,11.97
2018-03-14T10:36:04.657Z,12.37
2018-03-14T10:38:33.000Z,11.20
2018-03-14T10:41:01.397Z,12.27
2018-03-14T10:43:30.914Z,11.57
2018-03-14T10:45:59.522Z,11.53
2018-03-14T10:48:27.955Z,12.70
2018-03-14T10:50:56.482Z,12.70
2018-03-14T10:53:28.487Z,12.07
2018-03-14T10:55:56.864Z,13.30
2018-03-14T10:58:25.210Z,11.23
2018-03-14T11:00:56.476Z,12.90
2018-03-14T11:03:30.439Z,14.50
2018-03-14T11:05:58.869Z,12.33
2018-03-14T11:08:27.311Z,12.80
2018-03-14T11:10:55.708Z,11.20
2018-03-14T11:13:24.069Z,12.93
2018-03-14T11:15:52.429Z,13.20
2018-03-14T11:18:20.764Z,11.40
2018-03-14T11:20:49.077Z,9.97
2018-03-14T11:23:22.386Z,10.23
2018-03-14T11:25:51.098Z,10.87
2018-03-14T11:28:19.541Z,9.10
2018-03-14T11:30:47.938Z,10.67
2018-03-14T11:33:17.255Z,9.90
2018-03-14T11:35:46.490Z,9.83
2018-03-14T11:38:14.844Z,9.67
2018-03-14T11:40:43.260Z,11.23
2018-03-14T11:43:11.985Z,9.50
2018-03-14T11:45:40.755Z,10.50
2018-03-14T11:48:09.199Z,10.27
2018-03-14T11:50:37.546Z,10.63
2018-03-14T11:53:06.185Z,9.70
2018-03-14T11:58:07.147Z,10.20
2018-03-14T12:00:35.542Z,9.03
2018-03-14T12:03:03.947Z,8.87
2018-03-14T12:05:35.952Z,8.03
2018-03-14T12:10:37.575Z,8.20
2018-03-14T12:13:05.946Z,10.50
2018-03-14T12:15:36.287Z,8.93
2018-03-14T12:18:04.643Z,7.87
2018-03-14T12:20:33.218Z,7.27
2018-03-14T12:23:01.786Z,7.20
2018-03-14T12:25:30.645Z,7.73
2018-03-14T12:27:59.002Z,7.30
2018-03-14T12:30:27.340Z,7.13
2018-03-14T12:32:55.977Z,6.50
2018-03-14T12:35:24.310Z,6.77
2018-03-14T12:37:52.729Z,5.63
2018-03-14T12:40:21.282Z,8.00
2018-03-14T12:42:49.589Z,7.43
2018-03-14T12:45:18.103Z,7.20
2018-03-14T12:47:46.440Z,7.40
2018-03-14T12:50:14.775Z,7.50
2018-03-14T12:52:43.101Z,6.77
2018-03-14T12:55:11.454Z,7.30
2018-03-14T12:57:39.824Z,7.57
2018-03-14T13:00:08.232Z,6.13
2018-03-14T13:02:36.565Z,7.10
2018-03-14T13:05:06.029Z,11.50
2018-03-14T13:07:35.360Z,8.10
2018-03-14T13:10:04.075Z,7.00
2018-03-14T13:12:32.435Z,7.47
2018-03-14T13:15:00.872Z,8.17
2018-03-14T13:17:29.361Z,7.33
2018-03-14T13:19:58.210Z,6.60
2018-03-14T13:22:28.743Z,6.77
2018-03-14T13:24:58.082Z,7.47
2018-03-14T13:27:26.511Z,7.30
2018-03-14T13:29:54.862Z,6.50
2018-03-14T13:32:23.192Z,6.30
2018-03-14T13:34:51.587Z,6.83
2018-03-14T13:37:20.293Z,6.60
2018-03-14T13:39:51.796Z,6.60
2018-03-14T13:42:24.903Z,6.83
2018-03-14T13:49:59.909Z,6.90
2018-03-14T13:52:28.253Z,6.60
2018-03-14T13:54:57.910Z,6.90
2018-03-14T13:57:26.493Z,4.63
2018-03-14T13:59:54.901Z,5.50
2018-03-14T14:04:56.378Z,5.87
2018-03-14T14:07:24.717Z,6.30
2018-03-14T14:09:53.431Z,7.20
2018-03-14T14:12:21.740Z,7.00
2018-03-14T14:14:50.449Z,9.03
2018-03-14T14:17:18.855Z,7.20
2018-03-14T14:19:47.290Z,7.60
2018-03-14T14:22:15.655Z,9.80
2018-03-14T14:24:44.045Z,9.03
2018-03-14T14:27:13.456Z,7.60
2018-03-14T14:29:41.806Z,7.57
2018-03-14T14:32:10.320Z,7.60
2018-03-14T14:34:38.649Z,9.00
2018-03-14T14:37:06.982Z,7.93
2018-03-14T14:39:35.340Z,6.30
2018-03-14T14:42:03.712Z,6.70
2018-03-14T14:44:32.303Z,6.30
2018-03-14T14:47:00.774Z,7.00
2018-03-14T14:49:29.092Z,6.67
2018-03-14T14:51:57.430Z,6.70
2018-03-14T14:54:25.753Z,6.93
2018-03-14T14:56:54.113Z,7.20
2018-03-14T14:59:22.658Z,6.90
2018-03-14T15:01:51.049Z,7.67
2018-03-14T15:04:19.376Z,7.70
2018-03-14T15:06:48.197Z,7.63
2018-03-14T15:11:49.967Z,5.97
2018-03-14T15:14:18.337Z,7.57
2018-03-14T15:21:58.941Z,7.80
2018-03-14T15:24:27.276Z,6.87
2018-03-14T15:26:55.669Z,6.40
2018-03-14T15:29:24.313Z,7.50
2018-03-14T15:34:25.113Z,7.37
2018-03-14T15:36:53.705Z,8.27
2018-03-14T15:39:22.367Z,7.10
2018-03-14T15:41:50.752Z,6.40
2018-03-14T15:44:22.734Z,8.20
2018-03-14T15:46:51.427Z,8.93
2018-03-14T15:49:20.284Z,7.70
2018-03-14T15:54:23.856Z,8.07
2018-03-14T15:56:52.439Z,7.57
2018-03-14T15:59:26.858Z,7.73
2018-03-14T16:01:55.182Z,6.73
2018-03-14T16:04:25.803Z,8.93
2018-03-14T16:06:54.186Z,7.03
2018-03-14T16:09:22.591Z,8.10
2018-03-14T16:11:50.969Z,8.10
2018-03-14T16:16:53.194Z,8.87
2018-03-14T16:21:55.213Z,8.33
2018-03-14T16:24:23.567Z,8.17
2018-03-14T16:26:52.425Z,8.40
2018-03-14T16:29:26.221Z,7.80
2018-03-14T16:31:59.393Z,8.90
2018-03-14T16:34:28.527Z,7.90
2018-03-14T16:36:57.451Z,9.77
2018-03-14T16:39:25.930Z,8.00
2018-03-14T16:41:54.260Z,10.03
2018-03-14T16:49:33.771Z,10.47
2018-03-14T16:52:02.168Z,9.77
2018-03-14T16:54:31.418Z,9.40
2018-03-14T16:56:59.779Z,11.03
2018-03-14T16:59:28.502Z,11.20
2018-03-14T17:09:38.446Z,11.77
2018-03-14T17:12:06.987Z,10.18
2018-03-14T17:14:35.569Z,10.70
2018-03-14T17:17:03.976Z,10.77
2018-03-14T17:19:32.767Z,11.63
2018-03-14T17:22:01.599Z,13.07
2018-03-14T17:27:04.597Z,10.70
2018-03-14T17:29:34.120Z,11.13
2018-03-14T17:32:02.934Z,10.90
2018-03-14T17:39:36.408Z,12.93
2018-03-14T17:42:05.336Z,12.10
2018-03-14T17:44:34.540Z,13.13
2018-03-14T17:49:36.847Z,13.30
2018-03-14T17:52:05.329Z,12.87
2018-03-14T17:54:38.130Z,14.90
2018-03-14T18:02:13.346Z,14.70
2018-03-14T18:07:14.318Z,13.50
2018-03-14T18:09:42.804Z,14.17
2018-03-14T18:12:11.518Z,13.27
2018-03-14T18:14:40.035Z,12.60
2018-03-14T18:17:08.427Z,12.80
2018-03-14T18:27:18.903Z,14.30
2018-03-14T18:29:47.561Z,16.90
2018-03-14T18:32:15.931Z,14.20
2018-03-14T18:34:44.453Z,13.73
2018-03-14T18:39:48.396Z,14.33
2018-03-14T18:42:17.220Z,14.20
2018-03-14T18:44:45.969Z,14.00
2018-03-14T18:47:14.590Z,14.77
2018-03-14T18:49:42.921Z,14.10
2018-03-14T18:52:11.313Z,14.40
2018-03-14T18:57:12.243Z,15.70
2018-03-14T18:59:42.472Z,15.60
2018-03-14T19:04:43.995Z,15.83
2018-03-14T19:07:12.972Z,16.77
2018-03-14T19:09:41.373Z,17.37
2018-03-14T19:14:44.282Z,15.30
2018-03-14T19:19:46.304Z,17.43
2018-03-14T19:24:52.126Z,17.13
2018-03-14T19:27:20.465Z,18.07
2018-03-14T19:32:21.214Z,17.93
2018-03-14T19:34:49.612Z,20.00
2018-03-14T19:37:18.004Z,16.10
2018-03-14T19:39:47.937Z,16.47
2018-03-14T19:44:52.727Z,17.87
2018-03-14T19:47:21.602Z,19.20
2018-03-14T19:49:51.112Z,18.87
2018-03-14T19:52:19.537Z,19.60
2018-03-14T19:57:21.310Z,17.77
2018-03-14T20:02:22.203Z,18.30
2018-03-14T20:07:26.752Z,18.87
2018-03-14T20:09:55.265Z,17.07
2018-03-14T20:12:23.663Z,20.07
2018-03-14T20:14:53.384Z,19.70
2018-03-14T20:17:21.875Z,19.60
2018-03-14T20:19:52.206Z,17.40
2018-03-14T20:22:20.569Z,18.53
2018-03-14T20:24:49.664Z,18.40
2018-03-14T20:29:50.535Z,19.50
2018-03-14T20:32:18.912Z,21.00
2018-03-14T20:34:47.414Z,19.67
2018-03-14T20:37:15.736Z,20.93
2018-03-14T20:39:44.301Z,21.20
2018-03-14T20:42:13.368Z,19.17
2018-03-14T20:44:41.752Z,20.97
2018-03-14T20:47:10.181Z,21.43
2018-03-14T20:49:38.580Z,20.07
2018-03-14T20:52:07.069Z,23.07
2018-03-14T20:54:35.694Z,20.10
2018-03-14T20:57:04.233Z,23.30
2018-03-14T20:59:32.621Z,20.97
2018-03-14T21:02:02.092Z,20.97
2018-03-14T21:04:30.450Z,20.50
2018-03-14T21:06:58.942Z,22.80
2018-03-14T21:09:27.890Z,22.23
2018-03-14T21:11:56.439Z,22.07
2018-03-14T21:14:24.956Z,23.07
2018-03-14T21:16:53.421Z,25.53
2018-03-14T21:19:21.749Z,20.17
2018-03-14T21:21:51.123Z,20.30
2018-03-14T21:24:19.778Z,21.37
2018-03-14T21:26:49.105Z,20.00
2018-03-14T21:29:17.416Z,22.80
2018-03-14T21:31:45.830Z,23.10
2018-03-14T21:34:14.211Z,22.17
2018-03-14T21:36:42.606Z,22.63
2018-03-14T21:39:11.464Z,21.07
2018-03-14T21:41:39.904Z,23.77
2018-03-14T21:44:08.614Z,23.70
2018-03-14T21:46:36.996Z,24.20
2018-03-14T21:49:05.379Z,23.80
2018-03-14T21:51:33.701Z,22.97
2018-03-14T21:54:02.486Z,21.80
2018-03-14T21:56:30.815Z,18.70
2018-03-14T21:58:59.177Z,21.43
2018-03-14T22:01:27.541Z,22.90
2018-03-14T22:03:55.919Z,25.90
2018-03-14T22:06:24.534Z,24.27
2018-03-14T22:08:52.885Z,19.77
2018-03-14T22:11:22.611Z,20.50
2018-03-14T22:13:50.988Z,19.97
2018-03-14T22:16:19.471Z,24.07
2018-03-14T22:18:47.826Z,20.27
2018-03-14T22:21:16.150Z,17.60
2018-03-14T22:23:44.549Z,20.27
2018-03-14T22:26:12.879Z,21.60
2018-03-14T22:28:41.261Z,25.20
2018-03-14T22:31:09.635Z,25.20
2018-03-14T22:33:38.085Z,23.63
2018-03-14T22:36:06.462Z,28.93
2018-03-14T22:38:34.816Z,23.07
2018-03-14T22:41:03.397Z,20.53
2018-03-14T22:43:31.864Z,23.10
2018-03-14T22:46:00.423Z,20.90
2018-03-14T22:48:28.790Z,22.30
2018-03-14T22:50:57.112Z,18.27
2018-03-14T22:53:25.547Z,15.30
2018-03-14T22:55:53.913Z,24.60
2018-03-14T22:58:22.296Z,23.33
2018-03-14T23:00:50.829Z,24.60
2018-03-14T23:03:19.157Z,27.97
2018-03-14T23:05:48.221Z,25.50
2018-03-14T23:08:16.584Z,23.87
2018-03-14T23:10:44.960Z,26.70
2018-03-14T23:13:13.300Z,25.40
2018-03-14T23:15:41.649Z,26.70
2018-03-14T23:18:10.797Z,26.87
2018-03-14T23:20:39.505Z,22.40
2018-03-14T23:23:07.887Z,23.47
2018-03-14T23:25:36.244Z,25.90
2018-03-14T23:28:04.770Z,25.83
2018-03-14T23:30:33.164Z,25.87
2018-03-14T23:33:01.573Z,23.10
2018-03-14T23:35:29.882Z,20.80
2018-03-14T23:37:59.151Z,17.63
2018-03-14T23:40:27.481Z,23.03
2018-03-14T23:42:55.832Z,24.47
2018-03-14T23:45:24.243Z,22.80
2018-03-14T23:47:52.562Z,22.77
2018-03-14T23:50:20.899Z,24.90
2018-03-14T23:52:49.245Z,26.83
2018-03-14T23:55:17.579Z,23.90
2018-03-14T23:57:46.911Z,25.43
